Time;durP1;ratioP1;P1;durP2;ratioP2;P2;SDS_P1;SDS_P2;PMS_P1;PMS_P2;Temp;Humidity;BMP_temperature;BMP_pressure;BME280_temperature;BME280_humidity;BME280_pressure;Samples;Min_cycle;Max_cycle;Signal;HPM_P1;HPM_P2
2022/03/29 00:01:10;;;;;;;40.40;15.67;;;;;;;5.02;100.00;100946.66;5045185;28;20025;-74
2022/03/29 00:03:35;;;;;;;29.38;13.85;;;;;;;4.97;100.00;100932.97;5027639;28;20097;-75
2022/03/29 00:06:01;;;;;;;38.37;16.00;;;;;;;4.94;100.00;100933.22;5045180;28;20064;-75
2022/03/29 00:08:26;;;;;;;32.93;13.67;;;;;;;4.87;100.00;100929.38;5047635;28;20040;-74
2022/03/29 00:10:51;;;;;;;31.10;13.83;;;;;;;4.84;100.00;100932.25;5014796;28;20283;-74
2022/03/29 00:13:17;;;;;;;39.90;14.50;;;;;;;4.93;100.00;100928.88;5049489;28;20032;-74
2022/03/29 00:15:42;;;;;;;29.48;13.07;;;;;;;4.81;100.00;100913.97;5049270;28;20032;-74
2022/03/29 00:18:08;;;;;;;35.13;14.87;;;;;;;4.78;100.00;100912.41;5049111;28;20445;-74
2022/03/29 00:20:34;;;;;;;39.40;14.43;;;;;;;4.72;100.00;100912.06;5031263;28;20084;-74
2022/03/29 00:22:59;;;;;;;31.90;13.80;;;;;;;4.63;100.00;100903.88;5049000;28;20028;-74
2022/03/29 00:25:24;;;;;;;30.30;14.23;;;;;;;4.52;100.00;100916.25;5049099;28;20539;-74
2022/03/29 00:27:50;;;;;;;34.73;14.07;;;;;;;4.41;100.00;100903.88;5048944;28;20622;-74
2022/03/29 00:30:16;;;;;;;35.73;14.77;;;;;;;4.28;100.00;100909.25;5031230;28;20070;-74
2022/03/29 00:32:43;;;;;;;31.52;12.98;;;;;;;4.27;100.00;100930.53;5048881;28;20068;-73
2022/03/29 00:35:09;;;;;;;37.50;15.63;;;;;;;4.19;100.00;100925.81;5048870;28;20020;-74
2022/03/29 00:37:35;;;;;;;36.65;15.43;;;;;;;4.26;100.00;100927.03;5030803;28;20036;-74
2022/03/29 00:40:01;;;;;;;45.03;15.15;;;;;;;4.21;100.00;100930.03;5048612;28;20628;-73
2022/03/29 00:42:27;;;;;;;33.90;14.07;;;;;;;4.25;100.00;100946.50;5048935;28;20033;-75
2022/03/29 00:44:55;;;;;;;28.17;14.03;;;;;;;4.22;100.00;100938.81;5048716;28;20025;-74
2022/03/29 00:47:21;;;;;;;36.88;14.63;;;;;;;4.20;100.00;100930.97;5048844;28;20025;-73
2022/03/29 00:49:46;;;;;;;32.53;14.77;;;;;;;4.19;100.00;100915.22;5030579;28;20036;-74
2022/03/29 00:52:11;;;;;;;31.03;13.20;;;;;;;4.06;100.00;100907.41;5031056;28;20056;-74
2022/03/29 00:54:40;;;;;;;37.67;15.13;;;;;;;4.08;100.00;100929.28;5030831;28;20017;-74
2022/03/29 00:57:06;;;;;;;37.28;13.00;;;;;;;4.00;100.00;100936.94;5030845;28;20478;-74
2022/03/29 00:59:32;;;;;;;41.67;13.75;;;;;;;3.95;100.00;100933.78;5048164;28;20031;-74
2022/03/29 01:01:57;;;;;;;30.97;12.70;;;;;;;3.94;100.00;100921.56;5030492;28;20068;-74
2022/03/29 01:04:27;;;;;;;32.72;12.20;;;;;;;3.99;100.00;100929.97;5030396;28;20103;-74
2022/03/29 01:06:57;;;;;;;37.90;12.88;;;;;;;3.91;100.00;100916.47;5030528;28;20117;-74
2022/03/29 01:09:23;;;;;;;33.72;13.15;;;;;;;3.88;100.00;100914.06;5047795;28;20029;-74
2022/03/29 01:11:49;;;;;;;;;;;;;;;3.78;100.00;100917.41;5031091;28;20024;-74
2022/03/29 01:14:14;;;;;;;;;;;;;;;3.73;100.00;100922.19;5048422;28;19920;-74
2022/03/29 01:19:25;;;;;;;32.30;8.07;;;;;;;3.61;100.00;100896.72;5029854;28;20307;-74
2022/03/29 01:22:01;;;;;;;29.40;9.07;;;;;;;3.63;100.00;100902.72;5014105;28;20478;-74
2022/03/29 01:24:27;;;;;;;25.45;8.73;;;;;;;3.58;100.00;100895.13;5030256;28;20446;-74
2022/03/29 01:26:57;;;;;;;28.73;6.72;;;;;;;3.47;100.00;100881.88;5047894;28;20529;-74
2022/03/29 01:29:22;;;;;;;33.05;6.72;;;;;;;3.50;100.00;100876.38;5029874;28;20029;-74
2022/03/29 01:31:49;;;;;;;31.52;8.23;;;;;;;3.50;100.00;100878.16;5047955;28;20021;-73
2022/03/29 01:34:19;;;;;;;36.30;5.35;;;;;;;3.43;100.00;100864.59;5047672;28;20033;-74
2022/03/29 01:36:44;;;;;;;24.60;6.35;;;;;;;3.31;100.00;100871.59;5047574;28;20044;-74
2022/03/29 01:39:10;;;;;;;28.25;5.90;;;;;;;3.16;100.00;100862.16;5047134;28;20860;-74
2022/03/29 01:41:35;;;;;;;30.23;6.20;;;;;;;3.13;100.00;100872.94;5044894;28;20036;-74
2022/03/29 01:44:01;;;;;;;25.60;5.33;;;;;;;3.16;100.00;100883.25;5029538;28;20079;-73
2022/03/29 01:46:26;;;;;;;36.30;7.43;;;;;;;3.14;100.00;100879.94;5034622;28;20494;-73
2022/03/29 01:48:52;;;;;;;28.13;7.30;;;;;;;3.13;100.00;100883.50;5029615;28;20375;-73
2022/03/29 01:51:17;;;;;;;29.38;6.28;;;;;;;3.11;100.00;100874.84;5047432;28;20033;-73
2022/03/29 01:53:46;;;;;;;27.57;5.70;;;;;;;3.15;100.00;100886.88;5013059;28;20413;-74
2022/03/29 01:56:11;;;;;;;27.13;6.10;;;;;;;3.02;100.00;100881.66;5047488;28;20607;-73
2022/03/29 01:58:37;;;;;;;37.42;6.72;;;;;;;2.99;100.00;100878.38;5029333;28;20036;-73
2022/03/29 02:01:02;;;;;;;29.98;6.03;;;;;;;2.99;100.00;100881.03;5029422;28;20021;-74
2022/03/29 02:03:28;;;;;;;23.00;6.23;;;;;;;2.91;100.00;100884.22;5047465;28;20036;-74
2022/03/29 02:05:53;;;;;;;39.33;7.37;;;;;;;2.94;100.00;100883.97;5047356;28;20310;-74
2022/03/29 02:08:19;;;;;;;36.53;7.03;;;;;;;2.87;100.00;100882.75;5047121;28;20071;-74
2022/03/29 02:10:44;;;;;;;37.00;5.60;;;;;;;2.82;100.00;100882.22;5046826;28;20025;-74
2022/03/29 02:13:09;;;;;;;34.87;6.50;;;;;;;2.78;100.00;100886.03;5046970;28;21002;-73
2022/03/29 02:15:39;;;;;;;35.23;7.27;;;;;;;2.68;100.00;100875.28;5046939;28;20039;-74
2022/03/29 02:18:06;;;;;;;32.58;6.97;;;;;;;2.72;100.00;100877.59;5039325;28;20530;-74
2022/03/29 02:20:32;;;;;;;21.48;6.30;;;;;;;2.75;100.00;100874.75;5028856;28;20067;-73
2022/03/29 02:23:02;;;;;;;30.17;7.20;;;;;;;2.72;100.00;100874.13;5046736;28;20111;-75
2022/03/29 02:25:27;;;;;;;34.85;6.13;;;;;;;2.69;100.00;100869.06;5046748;28;20041;-74
2022/03/29 02:27:53;;;;;;;33.97;8.23;;;;;;;2.57;100.00;100870.78;5029007;28;20017;-75
2022/03/29 02:30:19;;;;;;;31.00;6.27;;;;;;;2.65;100.00;100878.16;5046020;28;20276;-74
2022/03/29 02:32:45;;;;;;;;;;;;;;;2.49;100.00;100873.94;5047312;28;20498;-73
2022/03/29 02:35:10;;;;;;;29.77;8.27;;;;;;;2.54;100.00;100877.09;5029131;28;19971;-74
2022/03/29 02:37:37;;;;;;;32.77;5.87;;;;;;;2.44;100.00;100876.06;5046155;28;20087;-74
2022/03/29 02:40:03;;;;;;;40.05;7.18;;;;;;;2.42;100.00;100877.13;5020757;28;20036;-74
2022/03/29 02:42:29;;;;;;;37.67;7.30;;;;;;;2.36;100.00;100870.47;5024215;28;20029;-74
2022/03/29 02:44:54;;;;;;;40.15;7.70;;;;;;;2.35;100.00;100871.44;5028689;28;20044;-74
2022/03/29 02:47:20;;;;;;;28.05;6.13;;;;;;;2.26;100.00;100879.97;5046477;28;20021;-74
2022/03/29 02:49:45;;;;;;;36.83;5.43;;;;;;;2.25;100.00;100871.22;5045940;28;20041;-74
2022/03/29 02:52:11;;;;;;;30.67;6.32;;;;;;;2.32;100.00;100882.19;5046234;28;20107;-73
2022/03/29 02:54:37;;;;;;;33.67;6.32;;;;;;;2.37;100.00;100881.88;5046025;28;20048;-73
2022/03/29 02:57:04;;;;;;;31.98;5.25;;;;;;;2.35;100.00;100874.06;5012285;28;20028;-74
2022/03/29 02:59:29;;;;;;;33.28;7.88;;;;;;;2.33;100.00;100873.34;5045947;28;20064;-73
2022/03/29 03:01:56;;;;;;;32.47;5.35;;;;;;;2.34;100.00;100875.00;5011284;28;20114;-74
2022/03/29 03:04:22;;;;;;;40.10;6.80;;;;;;;2.29;100.00;100862.19;5045994;28;20045;-73
2022/03/29 03:06:47;;;;;;;20.30;4.57;;;;;;;2.17;100.00;100867.44;5011784;28;20013;-73
2022/03/29 03:09:12;;;;;;;29.67;6.33;;;;;;;2.03;100.00;100869.22;5027939;28;20322;-73
2022/03/29 03:11:38;;;;;;;30.57;4.93;;;;;;;1.98;100.00;100862.59;5045996;28;20024;-73
2022/03/29 03:14:03;;;;;;;35.17;6.60;;;;;;;1.91;100.00;100859.50;5045864;28;20075;-74
2022/03/29 03:16:29;;;;;;;34.55;4.85;;;;;;;1.99;100.00;100867.75;5046187;28;20298;-73
2022/03/29 03:18:56;;;;;;;36.83;7.93;;;;;;;2.03;100.00;100866.56;5027745;28;20041;-73
2022/03/29 03:21:21;;;;;;;;;;;;;;;2.08;100.00;100858.38;5046058;28;20275;-73
2022/03/29 03:23:46;;;;;;;29.52;4.68;;;;;;;2.06;100.00;100855.84;5027793;28;19917;-73
2022/03/29 03:26:12;;;;;;;49.83;7.47;;;;;;;2.00;100.00;100848.34;5028070;28;20017;-73
2022/03/29 03:28:38;;;;;;;28.33;7.72;;;;;;;1.96;100.00;100846.03;5027596;28;20041;-73
2022/03/29 03:31:03;;;;;;;32.17;4.85;;;;;;;1.95;100.00;100850.47;5045664;28;20433;-73
2022/03/29 03:33:28;;;;;;;29.52;8.38;;;;;;;1.91;100.00;100851.63;5028018;28;20043;-73
2022/03/29 03:35:54;;;;;;;27.03;5.97;;;;;;;1.79;100.00;100857.72;5027462;28;20112;-74
2022/03/29 03:38:19;;;;;;;33.37;5.60;;;;;;;1.65;100.00;100858.63;5045662;28;20040;-73
2022/03/29 03:40:45;;;;;;;35.83;6.97;;;;;;;1.71;100.00;100865.28;5044927;28;20124;-74
2022/03/29 03:43:10;;;;;;;32.27;6.37;;;;;;;1.71;100.00;100854.75;5027000;28;20037;-74
2022/03/29 03:45:36;;;;;;;29.10;4.75;;;;;;;1.66;100.00;100857.69;5045305;28;20456;-74
2022/03/29 03:48:05;;;;;;;30.23;7.43;;;;;;;1.66;100.00;100844.53;5045606;28;20094;-73
2022/03/29 03:50:30;;;;;;;34.63;5.80;;;;;;;1.66;100.00;100847.16;5040568;28;20086;-73
2022/03/29 03:52:56;;;;;;;33.88;6.47;;;;;;;1.59;100.00;100838.84;5027799;28;20498;-73
2022/03/29 03:55:22;;;;;;;35.80;6.35;;;;;;;1.56;100.00;100841.66;5011046;28;20025;-73
2022/03/29 03:57:48;;;;;;;34.58;6.05;;;;;;;1.48;100.00;100839.56;5045223;28;20040;-73
2022/03/29 04:00:14;;;;;;;;;;;;;;;1.55;100.00;100845.25;5045438;28;20028;-74
2022/03/29 04:02:41;;;;;;;33.28;6.72;;;;;;;1.48;100.00;100838.72;5045568;28;19917;-74
2022/03/29 04:05:13;;;;;;;75.95;6.40;;;;;;;1.46;100.00;100843.22;5045221;28;20028;-73
2022/03/29 04:07:39;;;;;;;38.10;6.35;;;;;;;1.40;100.00;100846.25;5044729;28;20041;-73
2022/03/29 04:10:06;;;;;;;43.80;6.00;;;;;;;1.39;100.00;100845.41;5027068;28;20036;-73
2022/03/29 04:12:31;;;;;;;40.25;7.28;;;;;;;1.36;100.00;100845.63;5045248;28;20037;-73
2022/03/29 04:14:57;;;;;;;26.20;5.82;;;;;;;1.26;100.00;100831.38;5045039;28;20390;-73
2022/03/29 04:17:22;;;;;;;33.17;4.67;;;;;;;1.37;100.00;100838.56;5026975;28;20021;-75
2022/03/29 04:19:47;;;;;;;36.57;7.03;;;;;;;1.35;100.00;100836.03;5044489;28;20401;-73
2022/03/29 04:22:13;;;;;;;54.93;5.77;;;;;;;1.34;100.00;100830.91;5045364;28;20116;-73
2022/03/29 04:24:39;;;;;;;34.03;5.30;;;;;;;1.35;100.00;100832.56;5027137;28;20102;-73
2022/03/29 04:27:05;;;;;;;31.97;6.67;;;;;;;1.30;100.00;100822.34;5027520;28;20486;-73
2022/03/29 04:29:30;;;;;;;42.55;7.35;;;;;;;1.24;100.00;100828.88;5027094;28;21237;-74
2022/03/29 04:31:56;;;;;;;34.17;5.95;;;;;;;1.18;100.00;100823.16;5027115;28;20111;-72
2022/03/29 04:34:21;;;;;;;29.58;5.82;;;;;;;1.12;100.00;100821.75;5027162;28;20064;-73
2022/03/29 04:36:47;;;;;;;18.80;4.20;;;;;;;1.12;100.00;100821.75;5044750;28;20060;-73
2022/03/29 04:39:12;;;;;;;25.00;5.20;;;;;;;1.08;100.00;100824.69;5027418;28;20108;-74
2022/03/29 04:41:39;;;;;;;32.08;6.15;;;;;;;1.04;100.00;100819.63;5044746;28;20040;-73
2022/03/29 04:44:05;;;;;;;38.63;7.32;;;;;;;1.08;100.00;100814.16;5027172;28;20031;-74
2022/03/29 04:46:30;;;;;;;33.92;6.03;;;;;;;1.11;100.00;100812.19;5044788;28;20025;-73
2022/03/29 04:48:55;;;;;;;27.10;5.23;;;;;;;1.14;100.00;100814.63;5010168;28;20032;-73
2022/03/29 04:51:21;;;;;;;37.13;5.47;;;;;;;1.16;100.00;100815.34;5044745;28;20279;-73
2022/03/29 04:53:46;;;;;;;39.67;6.60;;;;;;;1.14;100.00;100804.09;5045579;28;20104;-73
2022/03/29 04:56:12;;;;;;;33.83;4.93;;;;;;;1.14;100.00;100804.09;5048672;28;20057;-74
2022/03/29 04:58:37;;;;;;;34.90;7.43;;;;;;;1.12;100.00;100800.72;5030327;28;20482;-74
2022/03/29 05:01:04;;;;;;;32.60;5.82;;;;;;;1.15;100.00;100797.91;5030599;28;20036;-73
2022/03/29 05:03:31;;;;;;;;;;;;;;;1.17;100.00;100801.28;5048776;28;20025;-73
2022/03/29 05:05:56;;;;;;;29.23;4.85;;;;;;;1.14;100.00;100798.84;5030363;28;20348;-74
2022/03/29 05:08:21;;;;;;;30.90;6.13;;;;;;;1.18;100.00;100800.31;5048315;28;20059;-73
2022/03/29 05:10:47;;;;;;;30.63;5.07;;;;;;;1.17;100.00;100798.66;5047340;28;20048;-73
2022/03/29 05:13:15;;;;;;;30.33;7.13;;;;;;;1.19;100.00;100796.75;5048395;28;20025;-73
2022/03/29 05:15:40;;;;;;;25.52;4.70;;;;;;;1.25;100.00;100801.59;5048110;28;20033;-73
2022/03/29 05:18:05;;;;;;;23.67;4.80;;;;;;;1.21;100.00;100786.97;5047926;28;20727;-73
2022/03/29 05:20:31;;;;;;;33.75;5.20;;;;;;;1.24;100.00;100789.41;5047831;28;20060;-74
2022/03/29 05:22:56;;;;;;;27.20;4.55;;;;;;;1.35;100.00;100790.47;5048032;28;20039;-74
2022/03/29 05:25:24;;;;;;;24.07;4.57;;;;;;;1.36;100.00;100794.78;5048199;28;20112;-73
2022/03/29 05:27:51;;;;;;;36.35;8.57;;;;;;;1.38;100.00;100790.25;5047993;28;20025;-73
2022/03/29 05:30:16;;;;;;;25.42;4.70;;;;;;;1.43;100.00;100790.81;5030039;28;20047;-74
2022/03/29 05:32:42;;;;;;;29.95;4.75;;;;;;;1.41;100.00;100777.75;5048095;28;20029;-74
2022/03/29 05:35:10;;;;;;;30.17;5.25;;;;;;;1.46;100.00;100777.44;5047566;28;20079;-73
2022/03/29 05:37:36;;;;;;;25.25;4.10;;;;;;;1.42;100.00;100776.81;5048004;28;20504;-73
2022/03/29 05:40:03;;;;;;;29.17;6.18;;;;;;;1.49;100.00;100774.59;5021628;28;20485;-73
2022/03/29 05:42:28;;;;;;;28.08;5.72;;;;;;;1.67;100.00;100772.53;5029097;28;20481;-74
2022/03/29 05:44:54;;;;;;;36.35;4.88;;;;;;;1.72;100.00;100772.22;5042918;28;20067;-74
2022/03/29 05:50:24;;;;;;;29.63;4.20;;;;;;;1.80;100.00;100769.88;4999784;28;20116;-73
2022/03/29 05:52:49;;;;;;;;;;;;;;;1.92;100.00;100766.44;5005873;28;20450;-73
2022/03/29 05:55:15;;;;;;;20.50;3.63;;;;;;;1.93;100.00;100760.19;5011883;28;19990;-73
2022/03/29 05:57:40;;;;;;;20.15;4.38;;;;;;;2.07;100.00;100756.59;5047467;28;20021;-73
2022/03/29 06:00:10;;;;;;;20.60;4.35;;;;;;;2.15;100.00;100758.69;5029261;28;20041;-74
2022/03/29 06:02:42;;;;;;;30.83;4.75;;;;;;;2.20;100.00;100756.56;5030349;28;20028;-73
2022/03/29 06:05:09;;;;;;;24.38;3.35;;;;;;;2.22;100.00;100757.31;5046275;28;20661;-73
2022/03/29 06:07:34;;;;;;;;;;;;;;;2.52;100.00;100757.75;5048147;28;20495;-73
2022/03/29 06:10:00;;;;;;;22.95;3.35;;;;;;;2.91;100.00;100745.28;5028719;28;19920;-73
2022/03/29 06:12:25;;;;;;;23.95;3.67;;;;;;;3.09;100.00;100750.13;5047536;28;20013;-73
2022/03/29 06:14:51;;;;;;;22.40;3.80;;;;;;;3.12;100.00;100739.38;5029377;28;20380;-73
2022/03/29 06:17:17;;;;;;;23.40;3.63;;;;;;;3.20;100.00;100726.44;5029571;28;20079;-73
2022/03/29 06:19:44;;;;;;;23.88;4.43;;;;;;;3.25;100.00;100726.91;5046780;28;20056;-73
2022/03/29 06:22:10;;;;;;;24.30;5.38;;;;;;;3.29;100.00;100715.19;5047056;28;20035;-73
2022/03/29 06:24:35;;;;;;;26.23;3.92;;;;;;;3.40;100.00;100711.75;5046934;28;20546;-73
2022/03/29 06:27:01;;;;;;;36.47;4.32;;;;;;;4.11;100.00;100722.09;5042504;28;20056;-73
2022/03/29 06:29:27;;;;;;;22.67;3.28;;;;;;;4.41;100.00;100713.53;5012291;28;20032;-74
2022/03/29 06:31:53;;;;;;;22.40;4.40;;;;;;;4.58;100.00;100693.66;5029066;28;20531;-73
2022/03/29 06:34:19;;;;;;;13.07;3.75;;;;;;;4.39;100.00;100679.28;5046426;28;20294;-74
2022/03/29 06:36:45;;;;;;;23.20;4.63;;;;;;;4.55;100.00;100665.66;5028763;28;20029;-73
2022/03/29 06:39:12;;;;;;;20.02;4.53;;;;;;;4.65;100.00;100666.56;5028571;28;20037;-73
2022/03/29 06:41:38;;;;;;;20.98;4.72;;;;;;;4.58;100.00;100654.00;5046579;28;20032;-74
2022/03/29 06:44:06;;;;;;;23.98;3.85;;;;;;;4.61;98.86;100654.59;5028884;28;20531;-73
2022/03/29 06:46:31;;;;;;;27.63;3.42;;;;;;;4.82;97.98;100659.91;5028770;28;20672;-73
2022/03/29 06:48:57;;;;;;;22.02;4.50;;;;;;;5.23;96.25;100646.81;5046041;28;20036;-74
2022/03/29 06:51:23;;;;;;;18.90;3.28;;;;;;;5.45;94.86;100646.63;5046527;28;20056;-74
2022/03/29 06:53:49;;;;;;;20.48;4.35;;;;;;;5.60;91.74;100614.53;5046039;28;20055;-73
2022/03/29 06:56:16;;;;;;;17.17;3.42;;;;;;;5.85;90.26;100611.41;5028611;28;20099;-74
2022/03/29 06:58:42;;;;;;;15.35;3.95;;;;;;;6.10;87.75;100593.34;5028203;28;20493;-74
2022/03/29 07:01:07;;;;;;;15.60;3.10;;;;;;;5.87;86.72;100579.47;5028605;28;20028;-73
2022/03/29 07:03:35;;;;;;;26.60;3.43;;;;;;;5.54;86.79;100575.31;5028511;28;20561;-73
2022/03/29 07:06:00;;;;;;;26.08;4.28;;;;;;;5.79;86.72;100592.56;5028499;28;20124;-74
2022/03/29 07:08:26;;;;;;;14.53;3.00;;;;;;;5.62;86.68;100588.72;5027589;28;20103;-74
2022/03/29 07:13:37;;;;;;;20.60;2.75;;;;;;;5.75;86.48;100609.69;5046262;28;20064;-73
2022/03/29 07:16:03;;;;;;;16.02;2.78;;;;;;;5.89;86.24;100628.69;5046057;28;20106;-74
2022/03/29 07:18:28;;;;;;;22.05;4.10;;;;;;;6.28;85.89;100643.91;5028020;28;20123;-74
2022/03/29 07:20:53;;;;;;;25.83;3.63;;;;;;;6.34;84.71;100607.06;5028125;28;20024;-74
2022/03/29 07:23:19;;;;;;;26.60;3.47;;;;;;;6.29;83.38;100573.97;5046052;28;20063;-74
2022/03/29 07:25:44;;;;;;;14.70;2.90;;;;;;;6.79;83.43;100618.06;5046027;28;20040;-74
2022/03/29 07:28:11;;;;;;;23.63;5.07;;;;;;;6.75;81.67;100575.91;5046079;28;20881;-74
2022/03/29 07:30:38;;;;;;;15.43;3.60;;;;;;;6.46;81.42;100570.63;5045723;28;20025;-74
2022/03/29 07:33:04;;;;;;;13.07;2.50;;;;;;;6.66;81.02;100584.72;5045923;28;20033;-74
2022/03/29 07:35:31;;;;;;;14.52;2.78;;;;;;;6.70;80.60;100575.50;5045895;28;20029;-74
2022/03/29 07:37:57;;;;;;;18.63;2.83;;;;;;;6.85;80.76;100604.25;5045853;28;20648;-76
2022/03/29 07:40:25;;;;;;;22.35;3.83;;;;;;;6.66;80.37;100563.50;5045668;28;20037;-74
2022/03/29 07:42:51;;;;;;;11.07;2.25;;;;;;;6.89;80.21;100595.88;5045761;28;20302;-74
2022/03/29 07:45:18;;;;;;;25.25;3.55;;;;;;;6.79;79.95;100565.00;5011242;28;20074;-74
2022/03/29 07:47:45;;;;;;;18.58;3.03;;;;;;;6.93;79.77;100585.78;5045688;28;20483;-74
2022/03/29 07:50:12;;;;;;;16.13;3.25;;;;;;;6.38;79.78;100548.44;5045571;28;20095;-74
2022/03/29 07:52:42;;;;;;;17.23;2.97;;;;;;;6.86;79.84;100611.22;5027907;28;20433;-74
2022/03/29 07:55:10;;;;;;;18.95;3.78;;;;;;;6.94;78.33;100567.06;5028024;28;20032;-74
2022/03/29 07:57:36;;;;;;;19.52;4.38;;;;;;;7.15;77.73;100561.56;5028008;28;20627;-74
2022/03/29 08:00:31;;;;;;;20.20;3.08;;;;;;;7.39;77.51;100566.34;5019512;28;20024;-74
2022/03/29 08:02:49;;;;;;;20.60;4.65;;;;;;;7.56;76.58;100570.09;5045777;28;20465;-74
2022/03/29 08:05:15;;;;;;;17.10;3.80;;;;;;;8.33;74.79;100567.88;5027813;28;20045;-74
2022/03/29 08:07:41;;;;;;;24.90;4.00;;;;;;;8.28;71.13;100413.25;5027993;28;20512;-74
2022/03/29 08:10:07;;;;;;;21.05;3.95;;;;;;;8.40;69.53;100380.09;5045510;28;20025;-75
2022/03/29 08:12:34;;;;;;;19.58;2.67;;;;;;;8.20;69.94;100399.91;5027995;28;20037;-74
2022/03/29 08:14:59;;;;;;;;;;;;;;;8.10;69.72;100393.84;5028081;28;20059;-74
2022/03/29 08:17:25;;;;;;;;;;;;;;;7.28;69.67;100310.78;5011947;28;20355;-74
2022/03/29 08:19:50;;;;;;;29.83;3.87;;;;;;;7.21;71.56;100434.50;5045140;28;19916;-74
2022/03/29 08:22:15;;;;;;;19.73;2.73;;;;;;;7.16;71.38;100417.22;5028039;28;20128;-74
2022/03/29 08:24:41;;;;;;;14.23;2.67;;;;;;;7.75;70.43;100456.66;5027583;28;20072;-74
2022/03/29 08:27:06;;;;;;;16.13;2.83;;;;;;;8.16;69.11;100411.84;5045441;28;20103;-74
2022/03/29 08:29:31;;;;;;;25.97;3.57;;;;;;;7.83;67.57;100313.25;5047593;28;20124;-74
2022/03/29 08:31:57;;;;;;;17.33;2.20;;;;;;;8.12;66.73;100322.72;5031565;28;20029;-75
2022/03/29 08:34:23;;;;;;;;;;;;;;;8.41;65.58;100295.84;5032119;28;20059;-74
2022/03/29 08:36:49;;;;;;;;;;;;;;;8.96;64.43;100316.63;5049422;28;19917;-74
2022/03/29 08:39:15;;;;;;;18.00;2.50;;;;;;;8.21;64.57;100242.00;5048940;28;19986;-74
2022/03/29 08:41:55;;;;;;;21.70;5.05;;;;;;;7.68;65.08;100248.34;5049004;28;20040;-74
2022/03/29 08:44:23;;;;;;;14.05;3.42;;;;;;;8.34;64.92;100346.16;5049004;28;20028;-75
2022/03/29 08:46:49;;;;;;;14.55;2.55;;;;;;;8.62;63.57;100292.75;5048917;28;20425;-74
2022/03/29 08:49:18;;;;;;;17.95;3.92;;;;;;;8.60;62.81;100236.22;5048746;28;20099;-74
2022/03/29 08:51:45;;;;;;;14.68;3.22;;;;;;;8.65;62.33;100233.88;5031005;28;20040;-74
2022/03/29 08:54:10;;;;;;;18.10;3.47;;;;;;;9.45;61.67;100329.22;5031230;28;20886;-75
2022/03/29 08:56:35;;;;;;;8.67;1.93;;;;;;;10.12;59.63;100276.50;5048579;28;20037;-74
2022/03/29 08:59:01;;;;;;;12.47;3.43;;;;;;;10.39;58.46;100261.09;5048716;28;20029;-74
2022/03/29 09:01:27;;;;;;;6.95;2.13;;;;;;;9.89;56.93;100104.91;5030976;28;20069;-74
2022/03/29 09:04:05;;;;;;;15.40;3.35;;;;;;;10.70;56.73;100217.56;5030589;28;20040;-74
2022/03/29 09:06:31;;;;;;;9.48;2.60;;;;;;;10.68;56.34;100198.25;5048714;28;20685;-74
2022/03/29 09:08:56;;;;;;;12.83;4.47;;;;;;;10.61;55.05;100083.34;5048286;28;20023;-75
2022/03/29 09:11:22;;;;;;;20.63;3.93;;;;;;;10.27;56.29;100135.22;5030781;28;20037;-74
2022/03/29 09:14:02;;;;;;;14.50;2.35;;;;;;;8.98;58.46;100127.44;5048446;28;20029;-74
2022/03/29 09:16:38;;;;;;;15.35;3.17;;;;;;;8.53;60.21;100181.97;5030526;28;20045;-75
2022/03/29 09:19:03;;;;;;;14.77;2.75;;;;;;;8.77;61.28;100312.44;5022296;28;20033;-75
2022/03/29 09:21:39;;;;;;;15.07;2.73;;;;;;;9.81;59.11;100291.56;5048600;28;20090;-75
2022/03/29 09:24:09;;;;;;;14.82;2.25;;;;;;;9.50;58.22;100180.31;5022883;28;20037;-74
2022/03/29 09:26:43;;;;;;;11.60;3.08;;;;;;;8.98;58.89;100181.53;5048284;28;20037;-75
2022/03/29 09:29:22;;;;;;;9.80;2.03;;;;;;;10.09;56.78;100206.66;5040753;28;20033;-75
2022/03/29 09:32:03;;;;;;;12.15;2.05;;;;;;;9.92;54.55;100016.56;5048287;28;20455;-75
2022/03/29 09:34:29;;;;;;;8.88;2.50;;;;;;;9.25;55.10;99985.94;5047916;28;20033;-74
2022/03/29 09:36:54;;;;;;;12.70;2.70;;;;;;;10.02;55.37;100155.00;5030507;28;20021;-76
2022/03/29 09:39:38;;;;;;;14.88;2.88;;;;;;;10.70;54.24;100151.69;5047405;28;20033;-75
2022/03/29 09:42:08;;;;;;;13.13;2.35;;;;;;;10.36;53.25;99983.94;5009937;28;20183;-75
2022/03/29 09:44:45;;;;;;;10.27;1.83;;;;;;;10.66;52.48;100016.06;5026148;28;20155;-75
2022/03/29 09:47:13;;;;;;;13.07;2.67;;;;;;;11.29;51.95;100076.19;5035870;28;20033;-75
2022/03/29 09:49:52;;;;;;;14.35;2.63;;;;;;;11.83;50.94;100070.53;5029466;28;20083;-75
2022/03/29 09:52:19;;;;;;;11.43;2.95;;;;;;;12.17;50.08;100030.81;5047978;28;20044;-75
2022/03/29 09:55:15;;;;;;;16.83;3.90;;;;;;;11.47;49.46;99847.78;5013189;28;20035;-75
2022/03/29 09:57:55;;;;;;;11.10;2.00;;;;;;;11.99;49.76;99981.25;5047588;28;20033;-75
2022/03/29 10:00:29;;;;;;;13.68;2.97;;;;;;;12.00;48.76;99924.03;5029370;28;20025;-75
2022/03/29 10:02:55;;;;;;;15.10;3.85;;;;;;;11.18;50.07;99886.94;5029594;28;20060;-76
2022/03/29 10:05:23;;;;;;;12.35;2.50;;;;;;;11.76;50.88;100069.63;5047157;28;20029;-75
2022/03/29 10:10:55;;;;;;;10.48;1.90;;;;;;;11.94;47.97;99889.19;5047297;28;20036;-75
2022/03/29 10:13:23;;;;;;;15.77;4.22;;;;;;;12.51;47.01;99908.81;5047599;28;20028;-75
2022/03/29 10:15:53;;;;;;;13.75;3.22;;;;;;;12.65;46.59;99915.91;5029291;28;20044;-75
2022/03/29 10:18:21;;;;;;;7.20;2.22;;;;;;;13.40;46.34;99978.59;5029533;28;20025;-74
2022/03/29 10:20:48;;;;;;;7.03;2.05;;;;;;;12.96;46.42;99882.47;5029073;28;20024;-75
2022/03/29 10:23:14;;;;;;;10.48;1.70;;;;;;;13.68;45.71;99969.63;5047587;28;20405;-75
2022/03/29 10:25:41;;;;;;;8.93;2.35;;;;;;;13.49;45.36;99880.84;5029278;28;20083;-75
2022/03/29 10:28:07;;;;;;;14.05;2.22;;;;;;;12.77;46.11;99820.56;5047249;28;20033;-75
2022/03/29 10:30:34;;;;;;;;;;;;;;;12.66;45.10;99724.75;5029611;28;20029;-74
2022/03/29 10:33:20;;;;;;;13.35;3.22;;;;;;;12.18;45.86;99701.50;5029180;28;19919;-74
2022/03/29 10:36:07;;;;;;;10.82;2.95;;;;;;;11.66;46.34;99680.56;5046577;28;20036;-74
2022/03/29 10:38:47;;;;;;;9.15;2.35;;;;;;;11.94;47.45;99860.63;5052936;22;20155;-78
2022/03/29 10:41:28;;;;;;;14.35;2.92;;;;;;;11.84;47.66;99855.53;5002447;28;20061;-78
2022/03/29 10:44:04;;;;;;;9.15;2.55;;;;;;;12.48;46.89;99917.22;5012705;28;20033;-78
2022/03/29 10:46:43;;;;;;;13.23;2.88;;;;;;;12.91;44.97;99802.72;4989564;28;20132;-78
2022/03/29 10:49:20;;;;;;;10.15;2.17;;;;;;;13.53;43.87;99811.53;5008180;28;20065;-78
2022/03/29 10:52:15;;;;;;;13.45;2.42;;;;;;;12.65;44.08;99694.47;5029735;28;20042;-77
2022/03/29 10:54:41;;;;;;;12.70;2.15;;;;;;;13.48;43.08;99779.97;5007960;28;20907;-77
2022/03/29 10:57:24;;;;;;;12.77;4.28;;;;;;;12.98;42.56;99613.34;5011031;28;20025;-77
2022/03/29 11:00:14;;;;;;;14.15;3.83;;;;;;;13.82;42.46;99763.91;4996128;28;20053;-79
2022/03/29 11:03:08;;;;;;;12.75;3.92;;;;;;;13.15;43.18;99696.81;5011612;28;20195;-79
2022/03/29 11:05:53;;;;;;;14.30;3.50;;;;;;;13.28;42.73;99691.50;4996153;28;20092;-78
2022/03/29 11:08:20;;;;;;;13.25;2.45;;;;;;;13.60;43.02;99748.03;5019627;28;20033;-79
2022/03/29 11:10:46;;;;;;;11.10;2.92;;;;;;;14.14;41.89;99767.56;5013041;28;20037;-80
2022/03/29 11:13:32;;;;;;;9.05;2.33;;;;;;;14.30;41.15;99721.47;4997755;28;20040;-80
2022/03/29 11:16:01;;;;;;;;;;;;;;;14.06;41.62;99689.97;5014446;28;20026;-79
2022/03/29 11:18:35;;;;;;;10.27;2.85;;;;;;;14.22;40.88;99643.84;5004725;28;19917;-78
2022/03/29 11:21:03;;;;;;;7.22;1.90;;;;;;;13.91;42.00;99690.22;5007836;28;20037;-78
2022/03/29 11:23:39;;;;;;;14.23;3.67;;;;;;;13.72;40.47;99509.50;5011777;28;20029;-79
2022/03/29 11:26:06;;;;;;;;;;;;;;;14.05;41.17;99634.66;5003843;28;20022;-79
2022/03/29 11:28:32;;;;;;;12.15;3.80;;;;;;;12.72;41.24;99385.69;5011075;28;19909;-79
2022/03/29 11:30:57;;;;;;;9.85;1.85;;;;;;;12.72;42.34;99554.41;5011762;28;20055;-79
2022/03/29 11:33:32;;;;;;;6.40;1.63;;;;;;;12.38;42.00;99428.56;5003356;28;20022;-79
2022/03/29 11:35:57;;;;;;;13.75;1.77;;;;;;;12.41;42.92;99583.41;5011539;28;20029;-79
2022/03/29 11:38:22;;;;;;;16.40;2.23;;;;;;;13.93;41.92;99764.09;5029162;28;20021;-79